Terminal Aerodrome Forecast
Issued by NWS Grand Forks, ND

Home | Current Version | Previous Version | Graphics & Text | Print | Product List | Glossary On
Versions: 1 2 3 4 5 6 7 8 9 10 11 12 13 14 15 16 17 18 19 20 21 22 23
000
FTUS43 KFGF 141026 AAA
TAFGFK
TAF AMD
KGFK 141026Z 1410/1506 VRB03KT P6SM SCT035
      TEMPO 1410/1413 3SM BR SCT003
     FM141500 05006KT P6SM SCT150
     FM142000 08008KT P6SM SCT120=

USA.gov is the U.S. government's official web portal to all federal, state and local government web resources and services.